sensor_id;sensor_type;location;lat;lon;timestamp;P1;durP1;ratioP1;P2;durP2;ratioP2
21645;SDS011;10984;45.712;4.800;2023-07-22T00:00:11;3.72;;;1.75;;
21645;SDS011;10984;45.712;4.800;2023-07-22T00:02:39;3.97;;;1.42;;
21645;SDS011;10984;45.712;4.800;2023-07-22T00:05:04;4.22;;;1.90;;
21645;SDS011;10984;45.712;4.800;2023-07-22T00:07:30;3.15;;;1.50;;
21645;SDS011;10984;45.712;4.800;2023-07-22T00:09:56;3.88;;;1.70;;
21645;SDS011;10984;45.712;4.800;2023-07-22T00:12:22;3.88;;;1.73;;
21645;SDS011;10984;45.712;4.800;2023-07-22T00:14:50;4.35;;;1.83;;
21645;SDS011;10984;45.712;4.800;2023-07-22T00:17:17;3.85;;;1.63;;
21645;SDS011;10984;45.712;4.800;2023-07-22T00:19:42;4.63;;;1.73;;
21645;SDS011;10984;45.712;4.800;2023-07-22T00:22:08;3.88;;;1.77;;
21645;SDS011;10984;45.712;4.800;2023-07-22T00:24:34;4.07;;;1.90;;
21645;SDS011;10984;45.712;4.800;2023-07-22T00:27:00;4.05;;;2.17;;
21645;SDS011;10984;45.712;4.800;2023-07-22T00:29:26;4.32;;;1.75;;
21645;SDS011;10984;45.712;4.800;2023-07-22T00:31:51;6.03;;;2.00;;
21645;SDS011;10984;45.712;4.800;2023-07-22T00:34:17;6.72;;;2.47;;
21645;SDS011;10984;45.712;4.800;2023-07-22T00:36:43;3.55;;;1.50;;
21645;SDS011;10984;45.712;4.800;2023-07-22T00:39:09;4.25;;;1.52;;
21645;SDS011;10984;45.712;4.800;2023-07-22T00:41:36;3.65;;;1.63;;
21645;SDS011;10984;45.712;4.800;2023-07-22T00:44:02;3.03;;;1.50;;
21645;SDS011;10984;45.712;4.800;2023-07-22T00:46:27;4.70;;;2.20;;
21645;SDS011;10984;45.712;4.800;2023-07-22T00:48:53;4.07;;;2.03;;
21645;SDS011;10984;45.712;4.800;2023-07-22T00:51:19;3.40;;;1.50;;
21645;SDS011;10984;45.712;4.800;2023-07-22T00:53:47;4.57;;;1.70;;
21645;SDS011;10984;45.712;4.800;2023-07-22T00:56:12;5.82;;;1.70;;
21645;SDS011;10984;45.712;4.800;2023-07-22T00:58:38;4.63;;;1.90;;
21645;SDS011;10984;45.712;4.800;2023-07-22T01:01:04;3.78;;;1.85;;
21645;SDS011;10984;45.712;4.800;2023-07-22T01:03:29;4.18;;;1.63;;
21645;SDS011;10984;45.712;4.800;2023-07-22T01:05:56;4.35;;;1.88;;
21645;SDS011;10984;45.712;4.800;2023-07-22T01:08:23;3.53;;;1.80;;
21645;SDS011;10984;45.712;4.800;2023-07-22T01:10:49;5.45;;;2.08;;
21645;SDS011;10984;45.712;4.800;2023-07-22T01:13:15;5.75;;;2.55;;
21645;SDS011;10984;45.712;4.800;2023-07-22T01:15:40;4.00;;;1.70;;
21645;SDS011;10984;45.712;4.800;2023-07-22T01:18:06;3.83;;;1.70;;
21645;SDS011;10984;45.712;4.800;2023-07-22T01:20:33;3.20;;;1.65;;
21645;SDS011;10984;45.712;4.800;2023-07-22T01:23:00;4.78;;;2.10;;
21645;SDS011;10984;45.712;4.800;2023-07-22T01:25:26;3.92;;;1.40;;
21645;SDS011;10984;45.712;4.800;2023-07-22T01:27:53;3.85;;;1.88;;
21645;SDS011;10984;45.712;4.800;2023-07-22T01:30:18;4.68;;;1.80;;
21645;SDS011;10984;45.712;4.800;2023-07-22T01:32:45;5.15;;;1.70;;
21645;SDS011;10984;45.712;4.800;2023-07-22T01:35:11;2.67;;;1.35;;
21645;SDS011;10984;45.712;4.800;2023-07-22T01:37:37;3.75;;;2.00;;
21645;SDS011;10984;45.712;4.800;2023-07-22T01:40:03;3.33;;;1.67;;
21645;SDS011;10984;45.712;4.800;2023-07-22T01:42:47;4.15;;;1.75;;
21645;SDS011;10984;45.712;4.800;2023-07-22T01:45:13;5.07;;;1.67;;
21645;SDS011;10984;45.712;4.800;2023-07-22T01:47:38;3.75;;;1.67;;
21645;SDS011;10984;45.712;4.800;2023-07-22T01:50:05;4.32;;;2.10;;
21645;SDS011;10984;45.712;4.800;2023-07-22T01:52:31;4.30;;;1.55;;
21645;SDS011;10984;45.712;4.800;2023-07-22T01:54:57;3.70;;;1.50;;
21645;SDS011;10984;45.712;4.800;2023-07-22T01:57:23;4.35;;;1.80;;
21645;SDS011;10984;45.712;4.800;2023-07-22T01:59:48;3.80;;;1.75;;
21645;SDS011;10984;45.712;4.800;2023-07-22T02:02:14;5.65;;;1.60;;
21645;SDS011;10984;45.712;4.800;2023-07-22T02:04:40;3.03;;;1.40;;
21645;SDS011;10984;45.712;4.800;2023-07-22T02:07:05;3.55;;;1.60;;
21645;SDS011;10984;45.712;4.800;2023-07-22T02:12:17;3.10;;;1.67;;
21645;SDS011;10984;45.712;4.800;2023-07-22T02:14:42;2.85;;;1.33;;
21645;SDS011;10984;45.712;4.800;2023-07-22T02:17:08;5.72;;;1.55;;
21645;SDS011;10984;45.712;4.800;2023-07-22T02:19:34;3.50;;;1.77;;
21645;SDS011;10984;45.712;4.800;2023-07-22T02:22:00;3.83;;;1.50;;
21645;SDS011;10984;45.712;4.800;2023-07-22T02:24:26;3.92;;;2.08;;
21645;SDS011;10984;45.712;4.800;2023-07-22T02:26:51;3.63;;;1.70;;
21645;SDS011;10984;45.712;4.800;2023-07-22T02:29:17;2.97;;;1.33;;
21645;SDS011;10984;45.712;4.800;2023-07-22T02:31:44;4.20;;;1.73;;
21645;SDS011;10984;45.712;4.800;2023-07-22T02:34:11;4.25;;;1.85;;
21645;SDS011;10984;45.712;4.800;2023-07-22T02:36:37;13.30;;;2.00;;
21645;SDS011;10984;45.712;4.800;2023-07-22T02:39:02;4.50;;;1.85;;
21645;SDS011;10984;45.712;4.800;2023-07-22T02:41:28;2.85;;;1.42;;
21645;SDS011;10984;45.712;4.800;2023-07-22T02:43:54;4.15;;;1.70;;
21645;SDS011;10984;45.712;4.800;2023-07-22T02:46:20;3.33;;;1.48;;
21645;SDS011;10984;45.712;4.800;2023-07-22T02:48:45;3.17;;;1.58;;
21645;SDS011;10984;45.712;4.800;2023-07-22T02:51:11;3.97;;;1.65;;
21645;SDS011;10984;45.712;4.800;2023-07-22T02:53:37;3.50;;;1.73;;
21645;SDS011;10984;45.712;4.800;2023-07-22T02:56:03;3.30;;;1.60;;
21645;SDS011;10984;45.712;4.800;2023-07-22T02:58:32;3.75;;;1.50;;
21645;SDS011;10984;45.712;4.800;2023-07-22T03:00:58;5.20;;;1.70;;
21645;SDS011;10984;45.712;4.800;2023-07-22T03:03:24;4.03;;;1.63;;
21645;SDS011;10984;45.712;4.800;2023-07-22T03:05:50;4.22;;;2.13;;
21645;SDS011;10984;45.712;4.800;2023-07-22T03:08:17;3.72;;;1.90;;
21645;SDS011;10984;45.712;4.800;2023-07-22T03:10:43;6.50;;;2.25;;
21645;SDS011;10984;45.712;4.800;2023-07-22T03:13:13;4.88;;;1.60;;
21645;SDS011;10984;45.712;4.800;2023-07-22T03:16:00;4.53;;;1.73;;
21645;SDS011;10984;45.712;4.800;2023-07-22T03:18:29;3.90;;;1.60;;
21645;SDS011;10984;45.712;4.800;2023-07-22T03:20:56;5.85;;;1.85;;
21645;SDS011;10984;45.712;4.800;2023-07-22T03:23:22;3.70;;;1.98;;
21645;SDS011;10984;45.712;4.800;2023-07-22T03:25:47;5.63;;;1.83;;
21645;SDS011;10984;45.712;4.800;2023-07-22T03:28:13;3.17;;;1.60;;
21645;SDS011;10984;45.712;4.800;2023-07-22T03:30:39;3.45;;;1.70;;
21645;SDS011;10984;45.712;4.800;2023-07-22T03:33:04;3.67;;;1.50;;
21645;SDS011;10984;45.712;4.800;2023-07-22T03:35:30;3.33;;;1.63;;
21645;SDS011;10984;45.712;4.800;2023-07-22T03:37:58;3.33;;;1.60;;
21645;SDS011;10984;45.712;4.800;2023-07-22T03:40:23;4.25;;;1.90;;
21645;SDS011;10984;45.712;4.800;2023-07-22T03:43:07;2.95;;;1.40;;
21645;SDS011;10984;45.712;4.800;2023-07-22T03:45:33;3.72;;;1.67;;
21645;SDS011;10984;45.712;4.800;2023-07-22T03:47:59;4.50;;;2.05;;
21645;SDS011;10984;45.712;4.800;2023-07-22T03:50:25;4.90;;;2.17;;
21645;SDS011;10984;45.712;4.800;2023-07-22T03:52:51;3.90;;;1.52;;
21645;SDS011;10984;45.712;4.800;2023-07-22T03:55:17;5.18;;;1.67;;
21645;SDS011;10984;45.712;4.800;2023-07-22T03:57:44;3.05;;;1.60;;
21645;SDS011;10984;45.712;4.800;2023-07-22T04:00:10;4.05;;;1.80;;
21645;SDS011;10984;45.712;4.800;2023-07-22T04:02:36;3.05;;;1.75;;
21645;SDS011;10984;45.712;4.800;2023-07-22T04:05:02;4.07;;;1.77;;
21645;SDS011;10984;45.712;4.800;2023-07-22T04:07:28;4.40;;;1.77;;
21645;SDS011;10984;45.712;4.800;2023-07-22T04:09:53;3.15;;;1.55;;
21645;SDS011;10984;45.712;4.800;2023-07-22T04:12:19;2.95;;;1.58;;
21645;SDS011;10984;45.712;4.800;2023-07-22T04:14:45;4.72;;;1.77;;
21645;SDS011;10984;45.712;4.800;2023-07-22T04:17:10;4.13;;;1.88;;
21645;SDS011;10984;45.712;4.800;2023-07-22T04:19:36;4.03;;;2.03;;
21645;SDS011;10984;45.712;4.800;2023-07-22T04:22:02;4.60;;;1.60;;
21645;SDS011;10984;45.712;4.800;2023-07-22T04:24:30;3.67;;;1.70;;
21645;SDS011;10984;45.712;4.800;2023-07-22T04:26:56;3.55;;;1.70;;
21645;SDS011;10984;45.712;4.800;2023-07-22T04:29:22;4.80;;;1.83;;
21645;SDS011;10984;45.712;4.800;2023-07-22T04:31:48;4.47;;;1.60;;
21645;SDS011;10984;45.712;4.800;2023-07-22T04:34:13;3.65;;;1.83;;
21645;SDS011;10984;45.712;4.800;2023-07-22T04:36:39;3.17;;;1.42;;
21645;SDS011;10984;45.712;4.800;2023-07-22T04:39:04;4.53;;;2.08;;
21645;SDS011;10984;45.712;4.800;2023-07-22T04:41:31;3.22;;;1.63;;
21645;SDS011;10984;45.712;4.800;2023-07-22T04:43:57;3.35;;;1.63;;
21645;SDS011;10984;45.712;4.800;2023-07-22T04:46:23;3.42;;;1.73;;
21645;SDS011;10984;45.712;4.800;2023-07-22T04:49:07;3.63;;;1.70;;
21645;SDS011;10984;45.712;4.800;2023-07-22T04:51:33;3.83;;;1.77;;
21645;SDS011;10984;45.712;4.800;2023-07-22T04:53:59;4.32;;;1.52;;
21645;SDS011;10984;45.712;4.800;2023-07-22T04:56:25;3.92;;;1.80;;
21645;SDS011;10984;45.712;4.800;2023-07-22T04:58:50;3.22;;;1.67;;
21645;SDS011;10984;45.712;4.800;2023-07-22T05:01:16;3.42;;;1.60;;
21645;SDS011;10984;45.712;4.800;2023-07-22T05:03:41;3.90;;;1.83;;
21645;SDS011;10984;45.712;4.800;2023-07-22T05:06:08;3.35;;;1.38;;
21645;SDS011;10984;45.712;4.800;2023-07-22T05:08:33;6.15;;;2.50;;
21645;SDS011;10984;45.712;4.800;2023-07-22T05:10:59;4.03;;;1.75;;
21645;SDS011;10984;45.712;4.800;2023-07-22T05:13:25;5.13;;;1.60;;
21645;SDS011;10984;45.712;4.800;2023-07-22T05:15:51;7.32;;;1.67;;
21645;SDS011;10984;45.712;4.800;2023-07-22T05:18:16;3.35;;;1.70;;
21645;SDS011;10984;45.712;4.800;2023-07-22T05:20:42;3.45;;;1.20;;
21645;SDS011;10984;45.712;4.800;2023-07-22T05:23:07;3.17;;;1.67;;
21645;SDS011;10984;45.712;4.800;2023-07-22T05:25:33;3.05;;;1.60;;
21645;SDS011;10984;45.712;4.800;2023-07-22T05:27:59;3.28;;;1.45;;
21645;SDS011;10984;45.712;4.800;2023-07-22T05:30:24;2.65;;;1.33;;
21645;SDS011;10984;45.712;4.800;2023-07-22T05:35:34;3.42;;;1.70;;
21645;SDS011;10984;45.712;4.800;2023-07-22T05:38:00;3.65;;;1.40;;
21645;SDS011;10984;45.712;4.800;2023-07-22T05:40:29;3.47;;;1.60;;
21645;SDS011;10984;45.712;4.800;2023-07-22T05:42:55;3.05;;;1.50;;
21645;SDS011;10984;45.712;4.800;2023-07-22T05:45:21;2.88;;;1.55;;
21645;SDS011;10984;45.712;4.800;2023-07-22T05:47:46;3.15;;;1.52;;
21645;SDS011;10984;45.712;4.800;2023-07-22T05:50:12;2.95;;;1.52;;
21645;SDS011;10984;45.712;4.800;2023-07-22T05:52:37;2.90;;;1.50;;
21645;SDS011;10984;45.712;4.800;2023-07-22T05:55:03;3.40;;;1.40;;
21645;SDS011;10984;45.712;4.800;2023-07-22T05:57:29;3.67;;;1.48;;
21645;SDS011;10984;45.712;4.800;2023-07-22T05:59:55;3.15;;;1.55;;
21645;SDS011;10984;45.712;4.800;2023-07-22T06:02:21;2.95;;;1.30;;
21645;SDS011;10984;45.712;4.800;2023-07-22T06:04:47;7.10;;;1.40;;
21645;SDS011;10984;45.712;4.800;2023-07-22T06:07:13;3.22;;;1.30;;
21645;SDS011;10984;45.712;4.800;2023-07-22T06:09:39;2.55;;;1.48;;
21645;SDS011;10984;45.712;4.800;2023-07-22T06:12:04;3.53;;;1.70;;
21645;SDS011;10984;45.712;4.800;2023-07-22T06:14:30;3.70;;;1.38;;
21645;SDS011;10984;45.712;4.800;2023-07-22T06:16:56;5.50;;;1.35;;
21645;SDS011;10984;45.712;4.800;2023-07-22T06:19:22;3.30;;;1.58;;
21645;SDS011;10984;45.712;4.800;2023-07-22T06:21:48;3.33;;;1.60;;
21645;SDS011;10984;45.712;4.800;2023-07-22T06:24:14;3.88;;;1.50;;
21645;SDS011;10984;45.712;4.800;2023-07-22T06:26:40;3.60;;;1.25;;
21645;SDS011;10984;45.712;4.800;2023-07-22T06:29:06;3.45;;;1.45;;
21645;SDS011;10984;45.712;4.800;2023-07-22T06:31:31;5.57;;;1.65;;
21645;SDS011;10984;45.712;4.800;2023-07-22T06:33:57;3.30;;;1.50;;
21645;SDS011;10984;45.712;4.800;2023-07-22T06:36:42;2.67;;;1.30;;
21645;SDS011;10984;45.712;4.800;2023-07-22T06:39:08;2.88;;;1.40;;
21645;SDS011;10984;45.712;4.800;2023-07-22T06:41:34;3.38;;;1.30;;
21645;SDS011;10984;45.712;4.800;2023-07-22T06:43:59;3.80;;;1.52;;
21645;SDS011;10984;45.712;4.800;2023-07-22T06:46:25;2.55;;;1.27;;
21645;SDS011;10984;45.712;4.800;2023-07-22T06:48:51;3.85;;;1.88;;
21645;SDS011;10984;45.712;4.800;2023-07-22T06:51:16;2.15;;;1.10;;
21645;SDS011;10984;45.712;4.800;2023-07-22T06:53:42;3.03;;;1.60;;
21645;SDS011;10984;45.712;4.800;2023-07-22T06:56:08;3.65;;;1.42;;
21645;SDS011;10984;45.712;4.800;2023-07-22T06:58:33;4.25;;;1.50;;
21645;SDS011;10984;45.712;4.800;2023-07-22T07:00:59;3.92;;;1.92;;
21645;SDS011;10984;45.712;4.800;2023-07-22T07:03:24;4.18;;;1.70;;
21645;SDS011;10984;45.712;4.800;2023-07-22T07:08:34;4.63;;;1.83;;
21645;SDS011;10984;45.712;4.800;2023-07-22T07:11:00;3.42;;;1.45;;
21645;SDS011;10984;45.712;4.800;2023-07-22T07:13:44;4.13;;;1.50;;
21645;SDS011;10984;45.712;4.800;2023-07-22T07:18:57;3.42;;;1.63;;
21645;SDS011;10984;45.712;4.800;2023-07-22T07:21:24;2.78;;;1.13;;
21645;SDS011;10984;45.712;4.800;2023-07-22T07:23:50;2.47;;;1.38;;
21645;SDS011;10984;45.712;4.800;2023-07-22T07:26:19;4.13;;;1.15;;
21645;SDS011;10984;45.712;4.800;2023-07-22T07:28:46;2.22;;;1.10;;
21645;SDS011;10984;45.712;4.800;2023-07-22T07:31:12;2.55;;;1.17;;
21645;SDS011;10984;45.712;4.800;2023-07-22T07:33:37;2.63;;;1.05;;
21645;SDS011;10984;45.712;4.800;2023-07-22T07:36:03;3.65;;;1.25;;
21645;SDS011;10984;45.712;4.800;2023-07-22T07:38:29;5.53;;;1.52;;
21645;SDS011;10984;45.712;4.800;2023-07-22T07:40:56;5.60;;;1.33;;
21645;SDS011;10984;45.712;4.800;2023-07-22T07:43:23;3.03;;;1.38;;
21645;SDS011;10984;45.712;4.800;2023-07-22T07:45:49;3.70;;;1.42;;
21645;SDS011;10984;45.712;4.800;2023-07-22T07:48:15;5.75;;;1.55;;
21645;SDS011;10984;45.712;4.800;2023-07-22T07:50:41;4.57;;;1.20;;
21645;SDS011;10984;45.712;4.800;2023-07-22T07:53:07;3.03;;;1.35;;
21645;SDS011;10984;45.712;4.800;2023-07-22T07:55:33;2.53;;;1.13;;
21645;SDS011;10984;45.712;4.800;2023-07-22T07:57:59;3.47;;;1.73;;
21645;SDS011;10984;45.712;4.800;2023-07-22T08:00:24;3.42;;;1.50;;
21645;SDS011;10984;45.712;4.800;2023-07-22T08:02:50;4.20;;;1.38;;
21645;SDS011;10984;45.712;4.800;2023-07-22T08:05:16;3.70;;;1.20;;
21645;SDS011;10984;45.712;4.800;2023-07-22T08:07:41;6.05;;;1.58;;
21645;SDS011;10984;45.712;4.800;2023-07-22T08:10:07;3.45;;;1.30;;
21645;SDS011;10984;45.712;4.800;2023-07-22T08:12:34;2.55;;;1.35;;
21645;SDS011;10984;45.712;4.800;2023-07-22T08:15:02;3.50;;;1.35;;
21645;SDS011;10984;45.712;4.800;2023-07-22T08:17:28;2.72;;;1.35;;
21645;SDS011;10984;45.712;4.800;2023-07-22T08:19:53;3.17;;;1.23;;
21645;SDS011;10984;45.712;4.800;2023-07-22T08:22:19;4.22;;;1.60;;
21645;SDS011;10984;45.712;4.800;2023-07-22T08:24:44;2.72;;;1.45;;
21645;SDS011;10984;45.712;4.800;2023-07-22T08:27:10;4.03;;;2.00;;
21645;SDS011;10984;45.712;4.800;2023-07-22T08:29:36;3.05;;;1.35;;
21645;SDS011;10984;45.712;4.800;2023-07-22T08:32:01;3.47;;;1.60;;
21645;SDS011;10984;45.712;4.800;2023-07-22T08:34:27;2.95;;;1.30;;
21645;SDS011;10984;45.712;4.800;2023-07-22T08:36:53;3.22;;;1.15;;
21645;SDS011;10984;45.712;4.800;2023-07-22T08:39:19;2.95;;;1.60;;
21645;SDS011;10984;45.712;4.800;2023-07-22T08:41:46;3.47;;;1.30;;
21645;SDS011;10984;45.712;4.800;2023-07-22T08:44:14;2.92;;;1.25;;
21645;SDS011;10984;45.712;4.800;2023-07-22T08:46:44;2.28;;;1.10;;
21645;SDS011;10984;45.712;4.800;2023-07-22T08:49:11;3.28;;;1.00;;
21645;SDS011;10984;45.712;4.800;2023-07-22T08:51:37;2.97;;;1.20;;
21645;SDS011;10984;45.712;4.800;2023-07-22T08:54:04;2.60;;;1.10;;
21645;SDS011;10984;45.712;4.800;2023-07-22T08:56:31;2.13;;;1.05;;
21645;SDS011;10984;45.712;4.800;2023-07-22T08:58:57;3.80;;;1.33;;
21645;SDS011;10984;45.712;4.800;2023-07-22T09:01:23;2.33;;;1.15;;
21645;SDS011;10984;45.712;4.800;2023-07-22T09:03:49;2.75;;;1.00;;
21645;SDS011;10984;45.712;4.800;2023-07-22T09:06:18;2.42;;;1.05;;
21645;SDS011;10984;45.712;4.800;2023-07-22T09:08:44;5.00;;;1.15;;
21645;SDS011;10984;45.712;4.800;2023-07-22T09:11:10;2.15;;;1.00;;
21645;SDS011;10984;45.712;4.800;2023-07-22T09:13:36;2.40;;;1.00;;
21645;SDS011;10984;45.712;4.800;2023-07-22T09:16:04;3.22;;;1.20;;
21645;SDS011;10984;45.712;4.800;2023-07-22T09:21:15;4.07;;;0.63;;
21645;SDS011;10984;45.712;4.800;2023-07-22T09:23:41;2.05;;;0.60;;
21645;SDS011;10984;45.712;4.800;2023-07-22T09:28:52;1.92;;;0.75;;
21645;SDS011;10984;45.712;4.800;2023-07-22T09:31:45;2.75;;;0.82;;
21645;SDS011;10984;45.712;4.800;2023-07-22T09:34:14;6.30;;;1.70;;
21645;SDS011;10984;45.712;4.800;2023-07-22T09:39:46;1.92;;;0.77;;
21645;SDS011;10984;45.712;4.800;2023-07-22T09:42:22;2.60;;;1.02;;
21645;SDS011;10984;45.712;4.800;2023-07-22T09:44:49;2.08;;;1.00;;
21645;SDS011;10984;45.712;4.800;2023-07-22T09:47:15;2.72;;;1.30;;
21645;SDS011;10984;45.712;4.800;2023-07-22T09:49:41;5.60;;;1.15;;
21645;SDS011;10984;45.712;4.800;2023-07-22T09:54:52;2.35;;;1.10;;
21645;SDS011;10984;45.712;4.800;2023-07-22T09:57:18;7.95;;;2.03;;
21645;SDS011;10984;45.712;4.800;2023-07-22T09:59:45;2.33;;;1.02;;
21645;SDS011;10984;45.712;4.800;2023-07-22T10:02:13;3.55;;;1.20;;
21645;SDS011;10984;45.712;4.800;2023-07-22T10:04:42;6.00;;;1.67;;
21645;SDS011;10984;45.712;4.800;2023-07-22T10:07:08;6.25;;;1.70;;
21645;SDS011;10984;45.712;4.800;2023-07-22T10:09:36;3.25;;;1.08;;
21645;SDS011;10984;45.712;4.800;2023-07-22T10:12:03;2.63;;;1.23;;
21645;SDS011;10984;45.712;4.800;2023-07-22T10:14:28;2.88;;;1.20;;
21645;SDS011;10984;45.712;4.800;2023-07-22T10:16:54;2.08;;;0.95;;
21645;SDS011;10984;45.712;4.800;2023-07-22T10:19:20;2.85;;;1.30;;
21645;SDS011;10984;45.712;4.800;2023-07-22T10:21:48;3.05;;;1.27;;
21645;SDS011;10984;45.712;4.800;2023-07-22T10:24:14;6.78;;;1.35;;
21645;SDS011;10984;45.712;4.800;2023-07-22T10:26:40;2.88;;;1.02;;
21645;SDS011;10984;45.712;4.800;2023-07-22T10:29:06;3.20;;;0.85;;
21645;SDS011;10984;45.712;4.800;2023-07-22T10:31:33;6.70;;;1.60;;
21645;SDS011;10984;45.712;4.800;2023-07-22T10:34:00;2.92;;;1.20;;
21645;SDS011;10984;45.712;4.800;2023-07-22T10:36:29;2.33;;;1.17;;
21645;SDS011;10984;45.712;4.800;2023-07-22T10:38:56;4.35;;;1.50;;
21645;SDS011;10984;45.712;4.800;2023-07-22T10:41:23;2.05;;;1.05;;
21645;SDS011;10984;45.712;4.800;2023-07-22T10:46:35;3.55;;;1.17;;
21645;SDS011;10984;45.712;4.800;2023-07-22T10:49:21;3.28;;;1.20;;
21645;SDS011;10984;45.712;4.800;2023-07-22T10:51:47;4.85;;;1.42;;
21645;SDS011;10984;45.712;4.800;2023-07-22T10:54:14;5.95;;;1.30;;
21645;SDS011;10984;45.712;4.800;2023-07-22T10:56:56;2.35;;;1.08;;
21645;SDS011;10984;45.712;4.800;2023-07-22T10:59:26;2.70;;;1.10;;
21645;SDS011;10984;45.712;4.800;2023-07-22T11:01:53;5.25;;;1.35;;
21645;SDS011;10984;45.712;4.800;2023-07-22T11:07:04;2.83;;;1.35;;
21645;SDS011;10984;45.712;4.800;2023-07-22T11:12:17;2.35;;;1.25;;
21645;SDS011;10984;45.712;4.800;2023-07-22T11:17:31;2.88;;;1.40;;
21645;SDS011;10984;45.712;4.800;2023-07-22T11:19:58;6.75;;;1.30;;
21645;SDS011;10984;45.712;4.800;2023-07-22T11:22:24;2.35;;;1.23;;
21645;SDS011;10984;45.712;4.800;2023-07-22T11:24:50;2.72;;;1.30;;
21645;SDS011;10984;45.712;4.800;2023-07-22T11:27:17;2.63;;;1.10;;
21645;SDS011;10984;45.712;4.800;2023-07-22T11:29:43;3.60;;;1.17;;
21645;SDS011;10984;45.712;4.800;2023-07-22T11:34:53;2.70;;;1.20;;
21645;SDS011;10984;45.712;4.800;2023-07-22T11:37:19;2.42;;;1.30;;
21645;SDS011;10984;45.712;4.800;2023-07-22T11:39:44;2.47;;;1.27;;
21645;SDS011;10984;45.712;4.800;2023-07-22T11:42:11;2.28;;;1.15;;
21645;SDS011;10984;45.712;4.800;2023-07-22T11:44:37;2.25;;;1.23;;
21645;SDS011;10984;45.712;4.800;2023-07-22T11:49:53;4.07;;;1.20;;
21645;SDS011;10984;45.712;4.800;2023-07-22T11:52:19;2.45;;;1.10;;
21645;SDS011;10984;45.712;4.800;2023-07-22T11:54:45;4.82;;;1.40;;
21645;SDS011;10984;45.712;4.800;2023-07-22T11:59:56;4.88;;;1.42;;
21645;SDS011;10984;45.712;4.800;2023-07-22T12:02:23;2.53;;;1.38;;
21645;SDS011;10984;45.712;4.800;2023-07-22T12:07:35;2.92;;;1.42;;
21645;SDS011;10984;45.712;4.800;2023-07-22T12:10:03;4.80;;;1.17;;
21645;SDS011;10984;45.712;4.800;2023-07-22T12:17:59;4.47;;;1.30;;
21645;SDS011;10984;45.712;4.800;2023-07-22T12:20:28;2.72;;;1.10;;
21645;SDS011;10984;45.712;4.800;2023-07-22T12:22:55;2.35;;;1.08;;
21645;SDS011;10984;45.712;4.800;2023-07-22T12:25:21;3.92;;;1.00;;
21645;SDS011;10984;45.712;4.800;2023-07-22T12:27:47;2.13;;;1.00;;
21645;SDS011;10984;45.712;4.800;2023-07-22T12:30:13;5.63;;;1.10;;
21645;SDS011;10984;45.712;4.800;2023-07-22T12:32:40;2.55;;;1.30;;
21645;SDS011;10984;45.712;4.800;2023-07-22T12:35:06;2.95;;;1.10;;
21645;SDS011;10984;45.712;4.800;2023-07-22T12:37:32;2.60;;;1.23;;
21645;SDS011;10984;45.712;4.800;2023-07-22T12:39:58;4.15;;;1.27;;
21645;SDS011;10984;45.712;4.800;2023-07-22T12:42:24;2.50;;;1.02;;
21645;SDS011;10984;45.712;4.800;2023-07-22T12:44:49;2.13;;;1.15;;
21645;SDS011;10984;45.712;4.800;2023-07-22T12:47:15;2.05;;;1.02;;
21645;SDS011;10984;45.712;4.800;2023-07-22T12:49:40;2.75;;;1.15;;
21645;SDS011;10984;45.712;4.800;2023-07-22T12:52:07;1.83;;;0.90;;
21645;SDS011;10984;45.712;4.800;2023-07-22T12:54:34;2.28;;;1.08;;
21645;SDS011;10984;45.712;4.800;2023-07-22T12:57:01;2.15;;;1.20;;
21645;SDS011;10984;45.712;4.800;2023-07-22T12:59:27;3.63;;;1.30;;
21645;SDS011;10984;45.712;4.800;2023-07-22T13:01:53;2.78;;;1.30;;
21645;SDS011;10984;45.712;4.800;2023-07-22T13:04:18;3.90;;;1.10;;
21645;SDS011;10984;45.712;4.800;2023-07-22T13:06:44;2.55;;;1.17;;
21645;SDS011;10984;45.712;4.800;2023-07-22T13:09:10;2.03;;;1.10;;
21645;SDS011;10984;45.712;4.800;2023-07-22T13:11:36;2.80;;;1.13;;
21645;SDS011;10984;45.712;4.800;2023-07-22T13:14:01;4.72;;;1.63;;
21645;SDS011;10984;45.712;4.800;2023-07-22T13:16:27;4.00;;;1.10;;
21645;SDS011;10984;45.712;4.800;2023-07-22T13:18:53;2.33;;;0.90;;
21645;SDS011;10984;45.712;4.800;2023-07-22T13:21:18;2.53;;;1.13;;
21645;SDS011;10984;45.712;4.800;2023-07-22T13:23:44;3.22;;;1.10;;
21645;SDS011;10984;45.712;4.800;2023-07-22T13:26:10;3.95;;;1.13;;
21645;SDS011;10984;45.712;4.800;2023-07-22T13:28:35;2.30;;;0.73;;
21645;SDS011;10984;45.712;4.800;2023-07-22T13:31:01;1.92;;;0.98;;
21645;SDS011;10984;45.712;4.800;2023-07-22T13:33:26;3.38;;;1.15;;
21645;SDS011;10984;45.712;4.800;2023-07-22T13:35:52;2.35;;;1.15;;
21645;SDS011;10984;45.712;4.800;2023-07-22T13:38:18;2.25;;;1.00;;
21645;SDS011;10984;45.712;4.800;2023-07-22T13:40:44;5.38;;;1.40;;
21645;SDS011;10984;45.712;4.800;2023-07-22T13:43:09;2.80;;;1.13;;
21645;SDS011;10984;45.712;4.800;2023-07-22T13:45:35;2.05;;;0.95;;
21645;SDS011;10984;45.712;4.800;2023-07-22T13:48:00;1.73;;;0.80;;
21645;SDS011;10984;45.712;4.800;2023-07-22T13:50:26;2.25;;;1.10;;
21645;SDS011;10984;45.712;4.800;2023-07-22T13:52:52;1.75;;;0.80;;
21645;SDS011;10984;45.712;4.800;2023-07-22T13:55:18;2.05;;;1.00;;
21645;SDS011;10984;45.712;4.800;2023-07-22T13:57:43;2.92;;;1.38;;
21645;SDS011;10984;45.712;4.800;2023-07-22T14:00:09;2.58;;;1.20;;
21645;SDS011;10984;45.712;4.800;2023-07-22T14:02:37;2.10;;;1.08;;
21645;SDS011;10984;45.712;4.800;2023-07-22T14:05:03;2.90;;;1.10;;
21645;SDS011;10984;45.712;4.800;2023-07-22T14:07:29;2.20;;;1.00;;
21645;SDS011;10984;45.712;4.800;2023-07-22T14:09:55;2.00;;;1.10;;
21645;SDS011;10984;45.712;4.800;2023-07-22T14:12:20;5.40;;;1.45;;
21645;SDS011;10984;45.712;4.800;2023-07-22T14:14:46;2.53;;;1.20;;
21645;SDS011;10984;45.712;4.800;2023-07-22T14:17:11;2.53;;;1.15;;
21645;SDS011;10984;45.712;4.800;2023-07-22T14:19:37;2.63;;;1.10;;
21645;SDS011;10984;45.712;4.800;2023-07-22T14:22:03;2.03;;;0.95;;
21645;SDS011;10984;45.712;4.800;2023-07-22T14:24:29;5.07;;;1.27;;
21645;SDS011;10984;45.712;4.800;2023-07-22T14:26:55;2.30;;;1.08;;
21645;SDS011;10984;45.712;4.800;2023-07-22T14:29:21;3.63;;;1.10;;
21645;SDS011;10984;45.712;4.800;2023-07-22T14:31:47;2.75;;;0.90;;
21645;SDS011;10984;45.712;4.800;2023-07-22T14:34:13;2.63;;;1.17;;
21645;SDS011;10984;45.712;4.800;2023-07-22T14:36:39;3.35;;;1.00;;
21645;SDS011;10984;45.712;4.800;2023-07-22T14:39:04;2.97;;;1.23;;
21645;SDS011;10984;45.712;4.800;2023-07-22T14:41:30;3.05;;;0.90;;
21645;SDS011;10984;45.712;4.800;2023-07-22T14:43:56;3.35;;;0.98;;
21645;SDS011;10984;45.712;4.800;2023-07-22T14:46:22;2.08;;;1.10;;
21645;SDS011;10984;45.712;4.800;2023-07-22T14:48:47;2.67;;;0.88;;
21645;SDS011;10984;45.712;4.800;2023-07-22T14:51:13;5.75;;;1.92;;
21645;SDS011;10984;45.712;4.800;2023-07-22T14:53:39;2.15;;;1.10;;
21645;SDS011;10984;45.712;4.800;2023-07-22T14:56:05;3.97;;;1.15;;
21645;SDS011;10984;45.712;4.800;2023-07-22T14:58:32;2.50;;;0.80;;
21645;SDS011;10984;45.712;4.800;2023-07-22T15:00:57;2.75;;;1.20;;
21645;SDS011;10984;45.712;4.800;2023-07-22T15:03:23;2.33;;;1.02;;
21645;SDS011;10984;45.712;4.800;2023-07-22T15:05:49;2.45;;;1.10;;
21645;SDS011;10984;45.712;4.800;2023-07-22T15:08:15;2.10;;;1.00;;
21645;SDS011;10984;45.712;4.800;2023-07-22T15:10:40;2.08;;;1.00;;
21645;SDS011;10984;45.712;4.800;2023-07-22T15:13:06;2.40;;;1.00;;
21645;SDS011;10984;45.712;4.800;2023-07-22T15:15:32;2.80;;;1.40;;
21645;SDS011;10984;45.712;4.800;2023-07-22T15:17:57;2.83;;;1.10;;
21645;SDS011;10984;45.712;4.800;2023-07-22T15:20:23;2.20;;;1.08;;
21645;SDS011;10984;45.712;4.800;2023-07-22T15:22:49;4.20;;;1.15;;
21645;SDS011;10984;45.712;4.800;2023-07-22T15:25:14;2.05;;;1.00;;
21645;SDS011;10984;45.712;4.800;2023-07-22T15:27:40;2.30;;;1.17;;
21645;SDS011;10984;45.712;4.800;2023-07-22T15:30:07;2.58;;;1.00;;
21645;SDS011;10984;45.712;4.800;2023-07-22T15:32:33;2.63;;;1.20;;